Time;durP1;ratioP1;P1;durP2;ratioP2;P2;SDS_P1;SDS_P2;PMS_P1;PMS_P2;Temp;Humidity;BMP_temperature;BMP_pressure;BME280_temperature;BME280_humidity;BME280_pressure;Samples;Min_cycle;Max_cycle;Signal;HPM_P1;HPM_P2
2022/11/30 00:00:47;;;;;;;35.10;22.00;;;;;;;8.26;nan;99757.16;6051409;23;20241;-83
2022/11/30 00:03:13;;;;;;;31.57;19.93;;;;;;;8.23;nan;99754.72;6052171;23;20172;-84
2022/11/30 00:05:38;;;;;;;31.57;20.47;;;;;;;8.20;nan;99755.72;6023768;23;20189;-83
2022/11/30 00:08:03;;;;;;;34.83;19.27;;;;;;;8.20;nan;99753.94;6049283;23;20221;-87
2022/11/30 00:10:29;;;;;;;29.90;20.40;;;;;;;8.22;nan;99751.25;6049636;23;20229;-84
2022/11/30 00:12:54;;;;;;;35.07;19.43;;;;;;;8.24;nan;99756.44;6047866;23;20240;-83
2022/11/30 00:15:20;;;;;;;24.27;17.67;;;;;;;8.27;nan;99751.88;6050173;23;20191;-83
2022/11/30 00:17:46;;;;;;;33.17;18.90;;;;;;;8.29;nan;99747.41;6023040;23;20198;-87
2022/11/30 00:20:13;;;;;;;35.13;18.42;;;;;;;8.32;nan;99751.63;6048258;23;20196;-85
2022/11/30 00:22:38;;;;;;;29.27;19.80;;;;;;;8.36;nan;99755.78;6047592;23;20482;-84
2022/11/30 00:25:04;;;;;;;32.30;19.67;;;;;;;8.36;nan;99748.75;6046600;23;20182;-83
2022/11/30 00:27:31;;;;;;;22.43;17.17;;;;;;;8.35;nan;99756.72;6044341;23;20198;-84
2022/11/30 00:29:57;;;;;;;33.17;18.17;;;;;;;8.36;nan;99747.91;6045071;23;20380;-86
2022/11/30 00:32:24;;;;;;;25.88;16.27;;;;;;;8.33;nan;99748.09;6046656;23;20236;-84
2022/11/30 00:34:50;;;;;;;37.95;23.25;;;;;;;8.32;nan;99749.88;6042343;23;20438;-83
2022/11/30 00:37:15;;;;;;;30.07;19.23;;;;;;;8.30;nan;99748.25;6043609;23;20356;-83
2022/11/30 00:39:41;;;;;;;27.15;17.77;;;;;;;8.28;nan;99745.69;6044390;23;20186;-83
2022/11/30 00:42:07;;;;;;;26.93;17.00;;;;;;;8.27;nan;99749.25;6042238;23;20624;-85
2022/11/30 00:44:32;;;;;;;27.33;16.30;;;;;;;8.27;nan;99748.41;6041646;23;20178;-84
2022/11/30 00:46:57;;;;;;;25.97;15.20;;;;;;;8.20;nan;99745.25;6038481;23;20193;-85
2022/11/30 00:49:24;;;;;;;26.37;17.17;;;;;;;8.17;nan;99750.66;6041832;23;20793;-83
2022/11/30 00:51:51;;;;;;;24.30;18.08;;;;;;;8.15;nan;99757.72;6040009;23;20205;-85
2022/11/30 00:54:17;;;;;;;26.37;16.23;;;;;;;8.12;nan;99750.88;6041876;23;20185;-85
2022/11/30 00:56:42;;;;;;;31.40;19.83;;;;;;;8.13;nan;99757.81;6051443;23;20438;-86
2022/11/30 00:59:07;;;;;;;31.37;17.80;;;;;;;8.15;nan;99766.41;6026010;23;20182;-83
2022/11/30 01:01:34;;;;;;;31.10;17.20;;;;;;;8.18;nan;99766.28;6050568;23;20192;-85
2022/11/30 01:04:00;;;;;;;26.70;17.77;;;;;;;8.19;nan;99760.09;6052225;23;20170;-85
2022/11/30 01:06:27;;;;;;;24.20;15.53;;;;;;;8.24;nan;99765.13;6053123;23;20180;-86
2022/11/30 01:08:52;;;;;;;24.50;16.48;;;;;;;8.24;nan;99764.28;6052543;23;20436;-84
2022/11/30 01:11:26;;;;;;;20.43;15.30;;;;;;;8.26;nan;99763.25;6027059;23;20185;-84
2022/11/30 01:13:52;;;;;;;24.58;16.23;;;;;;;8.27;nan;99762.34;6052323;23;20444;-85
2022/11/30 01:16:24;;;;;;;24.45;16.13;;;;;;;8.29;nan;99763.09;6052435;23;20232;-85
2022/11/30 01:18:50;;;;;;;25.95;17.30;;;;;;;8.32;nan;99760.34;6052331;23;20672;-84
2022/11/30 01:21:20;;;;;;;23.90;15.40;;;;;;;8.33;nan;99762.00;6050095;23;20772;-87
2022/11/30 01:23:45;;;;;;;24.48;13.68;;;;;;;8.36;nan;99761.00;6051759;23;20178;-86
2022/11/30 01:26:11;;;;;;;23.10;15.67;;;;;;;8.38;nan;99764.41;6051291;23;20179;-83
2022/11/30 01:28:39;;;;;;;24.23;17.50;;;;;;;8.36;nan;99769.69;6052691;23;20200;-85
2022/11/30 01:31:07;;;;;;;24.77;15.15;;;;;;;8.33;nan;99767.25;6051728;23;20184;-85
2022/11/30 01:33:32;;;;;;;24.00;17.55;;;;;;;8.29;nan;99765.72;6048819;23;20642;-85
2022/11/30 01:36:08;;;;;;;28.00;15.73;;;;;;;8.25;nan;99768.56;6053227;23;20171;-84
2022/11/30 01:38:36;;;;;;;24.70;15.68;;;;;;;8.24;nan;99769.50;6053028;23;20199;-89
2022/11/30 01:41:02;;;;;;;23.25;14.77;;;;;;;8.24;nan;99769.50;6051896;23;20254;-90
2022/11/30 01:43:53;;;;;;;25.23;15.50;;;;;;;8.22;nan;99766.13;6052656;23;20184;-84
2022/11/30 01:46:39;;;;;;;24.00;15.23;;;;;;;8.17;nan;99759.34;6024467;23;20183;-84
2022/11/30 01:49:08;;;;;;;29.65;16.20;;;;;;;8.17;nan;99761.09;6048977;23;20213;-85
2022/11/30 01:51:43;;;;;;;23.77;15.65;;;;;;;8.18;nan;99766.28;6027346;23;20250;-84
2022/11/30 01:54:11;;;;;;;22.00;15.75;;;;;;;8.20;nan;99763.56;6050695;23;20184;-83
2022/11/30 01:56:43;;;;;;;25.98;15.32;;;;;;;8.21;nan;99762.66;6051138;23;20181;-83
2022/11/30 01:59:10;;;;;;;30.83;17.80;;;;;;;8.24;nan;99761.66;6051979;23;20184;-86
2022/11/30 02:01:35;;;;;;;21.90;15.10;;;;;;;8.25;nan;99761.56;6049293;23;20176;-87
2022/11/30 02:04:07;;;;;;;24.30;17.80;;;;;;;8.28;nan;99771.03;6025290;23;20403;-85
2022/11/30 02:06:33;;;;;;;22.15;14.00;;;;;;;8.30;nan;99767.41;6050341;23;20186;-86
2022/11/30 02:08:58;;;;;;;17.97;15.00;;;;;;;8.31;nan;99760.41;6051208;23;20196;-87
2022/11/30 02:11:25;;;;;;;19.80;13.83;;;;;;;8.30;nan;99761.34;6050712;23;20185;-87
2022/11/30 02:14:01;;;;;;;20.83;15.32;;;;;;;8.29;nan;99767.47;6052701;23;20176;-84
2022/11/30 02:16:41;;;;;;;22.45;14.38;;;;;;;8.25;nan;99764.19;6049481;23;20186;-88
2022/11/30 02:19:13;;;;;;;20.45;13.52;;;;;;;8.20;nan;99760.94;6049112;23;20193;-84
2022/11/30 02:21:54;;;;;;;23.98;14.32;;;;;;;8.17;nan;99761.09;6051042;23;20177;-85
2022/11/30 02:25:02;;;;;;;18.60;14.90;;;;;;;8.17;nan;99758.50;6048469;23;20205;-87
2022/11/30 02:28:09;;;;;;;20.38;15.07;;;;;;;8.16;nan;99762.06;6052156;23;20240;-86
2022/11/30 02:30:39;;;;;;;22.73;12.88;;;;;;;8.14;nan;99756.03;6019510;23;20183;-84
2022/11/30 02:33:10;;;;;;;21.65;15.73;;;;;;;8.15;nan;99757.72;6048518;23;20203;-86
2022/11/30 02:35:39;;;;;;;19.42;15.25;;;;;;;8.15;nan;99763.78;6048689;23;20578;-85
2022/11/30 02:38:05;;;;;;;22.38;15.70;;;;;;;8.18;nan;99760.19;6049328;23;20280;-85
2022/11/30 02:40:30;;;;;;;23.60;15.53;;;;;;;8.20;nan;99764.41;6047521;23;20180;-86
2022/11/30 02:42:59;;;;;;;22.50;14.47;;;;;;;8.22;nan;99756.50;6051441;23;20168;-87
2022/11/30 02:46:06;;;;;;;18.60;14.27;;;;;;;8.23;nan;99758.16;6050497;23;20489;-87
2022/11/30 02:48:48;;;;;;;22.95;15.02;;;;;;;8.22;nan;99756.50;6047226;23;20227;-88
2022/11/30 02:51:18;;;;;;;20.92;14.90;;;;;;;8.26;nan;99762.41;6048976;23;20171;-87
2022/11/30 02:53:45;;;;;;;26.02;15.52;;;;;;;8.28;nan;99756.16;6049021;23;20187;-87
2022/11/30 02:56:11;;;;;;;24.92;16.58;;;;;;;8.28;nan;99756.16;6048197;23;20184;-86
2022/11/30 02:58:36;;;;;;;24.87;14.10;;;;;;;8.28;nan;99757.94;6049909;23;20197;-84
2022/11/30 03:01:02;;;;;;;21.17;16.20;;;;;;;8.28;nan;99765.78;6049035;23;20182;-83
2022/11/30 03:03:27;;;;;;;19.80;14.00;;;;;;;8.26;nan;99765.03;6046816;23;20168;-87
2022/11/30 03:05:52;;;;;;;20.40;15.20;;;;;;;8.26;nan;99770.25;6048737;23;20195;-86
2022/11/30 03:08:18;;;;;;;18.70;13.77;;;;;;;8.27;nan;99770.19;6047908;23;20192;-89
2022/11/30 03:10:43;;;;;;;25.50;16.30;;;;;;;8.27;nan;99767.56;6048505;23;20186;-84
2022/11/30 03:13:09;;;;;;;22.87;15.90;;;;;;;8.27;nan;99766.72;6050103;23;20260;-85
2022/11/30 03:15:34;;;;;;;19.33;13.60;;;;;;;8.26;nan;99772.88;6050317;23;20178;-87
2022/11/30 03:18:01;;;;;;;22.20;14.77;;;;;;;8.25;nan;99769.41;6049868;23;20585;-87
2022/11/30 03:20:27;;;;;;;21.30;13.48;;;;;;;8.24;nan;99770.34;6032415;23;20244;-88
2022/11/30 03:22:52;;;;;;;19.43;13.93;;;;;;;8.25;nan;99776.41;6050233;23;20174;-84
2022/11/30 03:25:18;;;;;;;24.20;14.70;;;;;;;8.27;nan;99771.97;6049368;23;20188;-84
2022/11/30 03:27:43;;;;;;;19.40;14.83;;;;;;;8.30;nan;99774.41;6048067;23;20201;-86
2022/11/30 03:30:09;;;;;;;24.10;13.80;;;;;;;8.32;nan;99773.41;6049527;23;20181;-89
2022/11/30 03:32:34;;;;;;;18.97;12.97;;;;;;;8.35;nan;99781.09;6050242;23;20204;-85
2022/11/30 03:35:00;;;;;;;19.47;13.47;;;;;;;8.36;nan;99768.84;6051233;23;20468;-87
2022/11/30 03:37:25;;;;;;;16.40;11.50;;;;;;;8.37;nan;99773.16;6053134;23;20575;-83
2022/11/30 03:39:50;;;;;;;22.13;13.27;;;;;;;8.33;nan;99775.09;6050647;23;20184;-85
2022/11/30 03:42:16;;;;;;;21.20;14.47;;;;;;;8.32;nan;99776.03;6050256;23;20471;-86
2022/11/30 03:44:41;;;;;;;19.13;13.90;;;;;;;8.32;nan;99778.66;6050203;23;20173;-86
2022/11/30 03:47:07;;;;;;;19.30;14.83;;;;;;;8.31;nan;99776.09;6051175;23;20241;-86
2022/11/30 03:49:32;;;;;;;15.37;11.00;;;;;;;8.28;nan;99781.50;6042497;23;20212;-82
2022/11/30 03:51:57;;;;;;;18.83;12.70;;;;;;;8.28;nan;99781.50;6033584;23;20203;-81
2022/11/30 03:54:23;;;;;;;21.00;14.20;;;;;;;8.24;nan;99772.13;6007811;23;20602;-82
2022/11/30 03:56:48;;;;;;;23.80;14.37;;;;;;;8.22;nan;99773.97;6007000;23;20509;-82
2022/11/30 03:59:14;;;;;;;18.93;12.23;;;;;;;8.20;nan;99782.72;6030532;23;20221;-82
2022/11/30 04:01:39;;;;;;;15.97;11.00;;;;;;;8.20;nan;99782.72;6033954;23;20176;-82
2022/11/30 04:04:05;;;;;;;24.33;11.73;;;;;;;8.19;nan;99781.03;6031170;23;20180;-81
2022/11/30 04:06:31;;;;;;;14.00;10.27;;;;;;;8.18;nan;99776.75;6031297;23;20412;-82
2022/11/30 04:08:56;;;;;;;15.13;10.03;;;;;;;8.17;nan;99787.28;6006689;23;20184;-82
2022/11/30 04:11:21;;;;;;;16.77;10.33;;;;;;;8.15;nan;99789.13;6032507;23;20180;-82
2022/11/30 04:13:47;;;;;;;14.20;10.40;;;;;;;8.13;nan;99783.97;6032356;23;20504;-81
2022/11/30 04:16:12;;;;;;;16.87;11.67;;;;;;;8.13;nan;99788.38;6031686;23;20193;-81
2022/11/30 04:18:38;;;;;;;15.80;10.97;;;;;;;8.09;nan;99789.44;6032838;23;20216;-82
2022/11/30 04:21:06;;;;;;;19.70;12.23;;;;;;;8.06;nan;99789.59;6033841;23;20176;-82
2022/11/30 04:23:34;;;;;;;17.27;10.55;;;;;;;8.04;nan;99789.66;6033547;23;20489;-81
2022/11/30 04:26:03;;;;;;;11.40;9.35;;;;;;;8.03;nan;99784.53;6031981;23;20290;-82
2022/11/30 04:28:28;;;;;;;10.18;9.00;;;;;;;8.04;nan;99779.19;6031263;23;20207;-82
2022/11/30 04:30:54;;;;;;;11.77;8.87;;;;;;;8.07;nan;99781.66;6034092;23;20200;-82
2022/11/30 04:33:19;;;;;;;18.10;12.00;;;;;;;8.07;nan;99783.44;6031032;23;20201;-82
2022/11/30 04:35:48;;;;;;;15.87;10.27;;;;;;;8.08;nan;99785.97;6033753;23;20186;-81
2022/11/30 04:38:14;;;;;;;16.98;10.93;;;;;;;8.10;nan;99791.13;6032562;23;20457;-81
2022/11/30 04:40:41;;;;;;;17.63;9.77;;;;;;;8.12;nan;99784.03;6008171;23;20263;-81
2022/11/30 04:43:07;;;;;;;15.43;9.93;;;;;;;8.14;nan;99790.06;6032362;23;20176;-82
2022/11/30 04:45:32;;;;;;;16.92;11.55;;;;;;;8.15;nan;99781.25;5818693;23;5001555;-82
2022/11/30 04:47:57;;;;;;;14.30;9.60;;;;;;;8.16;nan;99789.06;6027857;23;20211;-82
2022/11/30 04:50:23;;;;;;;12.17;8.77;;;;;;;8.17;nan;99790.72;6030777;23;20182;-82
2022/11/30 04:52:48;;;;;;;15.30;10.20;;;;;;;8.18;nan;99797.69;6031542;23;20243;-82
2022/11/30 04:55:16;;;;;;;14.27;8.93;;;;;;;8.19;nan;99795.91;6032803;23;20222;-82
2022/11/30 04:57:41;;;;;;;14.43;9.95;;;;;;;8.18;nan;99797.69;6031942;23;20255;-81
2022/11/30 05:00:07;;;;;;;14.83;8.47;;;;;;;8.15;nan;99789.97;6032955;23;20282;-82
2022/11/30 05:02:32;;;;;;;12.52;8.20;;;;;;;8.16;nan;99794.28;6033110;23;20305;-82
2022/11/30 05:04:58;;;;;;;14.83;8.27;;;;;;;8.16;nan;99798.69;6030971;23;20184;-82
2022/11/30 05:07:23;;;;;;;13.73;9.67;;;;;;;8.15;nan;99792.56;6009087;23;20212;-82
2022/11/30 05:09:49;;;;;;;22.80;11.27;;;;;;;8.12;nan;99792.72;6031800;23;20440;-81
2022/11/30 05:12:14;;;;;;;16.87;9.53;;;;;;;8.10;nan;99797.22;6034127;23;20201;-82
2022/11/30 05:14:39;;;;;;;18.80;10.70;;;;;;;8.10;nan;99793.72;6032628;23;20190;-82
2022/11/30 05:17:07;;;;;;;14.17;9.33;;;;;;;8.10;nan;99799.84;6035784;23;20197;-82
2022/11/30 05:19:33;;;;;;;18.48;11.43;;;;;;;8.10;nan;99802.44;6033358;23;20173;-81
2022/11/30 05:21:58;;;;;;;15.07;10.70;;;;;;;8.11;nan;99796.28;6009123;23;20176;-82
2022/11/30 05:24:24;;;;;;;21.80;9.73;;;;;;;8.12;nan;99805.81;6032790;23;20591;-82
2022/11/30 05:26:49;;;;;;;16.10;9.43;;;;;;;8.13;nan;99804.06;6032821;23;20229;-81
2022/11/30 05:29:14;;;;;;;16.30;10.53;;;;;;;8.13;nan;99807.53;6033476;23;20199;-82
2022/11/30 05:31:40;;;;;;;11.73;10.07;;;;;;;8.15;nan;99800.41;6032815;23;20210;-82
2022/11/30 05:34:05;;;;;;;13.17;9.80;;;;;;;8.17;nan;99803.81;6035861;23;20572;-82
2022/11/30 05:36:31;;;;;;;12.63;9.23;;;;;;;8.18;nan;99805.53;6012027;23;20181;-82
2022/11/30 05:38:56;;;;;;;10.60;8.37;;;;;;;8.19;nan;99803.75;6033975;23;20241;-83
2022/11/30 05:41:22;;;;;;;9.60;7.30;;;;;;;8.21;nan;99809.75;6033903;23;20184;-83
2022/11/30 05:43:47;;;;;;;9.43;7.00;;;;;;;8.22;nan;99807.97;6008689;23;20591;-83
2022/11/30 05:46:12;;;;;;;9.17;6.70;;;;;;;8.20;nan;99805.44;6035740;23;20185;-83
2022/11/30 05:48:38;;;;;;;12.17;8.90;;;;;;;8.20;nan;99806.28;6032859;23;20214;-83
2022/11/30 05:51:14;;;;;;;11.20;8.63;;;;;;;8.23;nan;99793.97;6031073;23;20184;-83
2022/11/30 05:53:40;;;;;;;12.00;7.85;;;;;;;8.22;nan;99803.59;6028604;23;20208;-82
2022/11/30 05:56:08;;;;;;;12.83;9.30;;;;;;;8.23;nan;99801.81;6031103;23;20225;-82
2022/11/30 05:58:34;;;;;;;9.50;7.53;;;;;;;8.25;nan;99802.59;6027242;23;21100;-82
2022/11/30 06:01:00;;;;;;;13.63;10.03;;;;;;;8.27;nan;99800.75;6026908;23;20180;-82
2022/11/30 06:03:28;;;;;;;18.97;11.17;;;;;;;8.27;nan;99801.59;5977798;23;20422;-82
2022/11/30 06:05:53;;;;;;;14.55;10.35;;;;;;;8.28;nan;99791.97;5979907;23;20513;-82
2022/11/30 06:08:19;;;;;;;20.07;11.93;;;;;;;8.29;nan;99811.97;6026939;23;20201;-82
2022/11/30 06:10:44;;;;;;;27.43;14.10;;;;;;;8.28;nan;99797.19;6024105;23;20192;-81
2022/11/30 06:13:10;;;;;;;19.57;12.80;;;;;;;8.25;nan;99800.81;6024750;23;20382;-82
2022/11/30 06:15:37;;;;;;;22.00;13.85;;;;;;;8.24;nan;99799.13;6025229;23;20172;-82
2022/11/30 06:18:03;;;;;;;24.67;13.23;;;;;;;8.24;nan;99790.44;5795989;23;5003917;-82
2022/11/30 06:20:29;;;;;;;27.08;18.25;;;;;;;8.24;nan;99793.91;6023397;23;20512;-82
2022/11/30 06:22:54;;;;;;;26.50;16.17;;;;;;;8.25;nan;99797.34;6025679;23;20184;-82
2022/11/30 06:25:20;;;;;;;24.73;14.33;;;;;;;8.22;nan;99798.34;6023143;23;20182;-82
2022/11/30 06:27:45;;;;;;;28.40;15.67;;;;;;;8.20;nan;99795.81;6020080;23;20176;-82
2022/11/30 06:30:11;;;;;;;27.90;15.67;;;;;;;8.21;nan;99788.81;6020959;23;20563;-82
2022/11/30 06:32:37;;;;;;;20.38;15.75;;;;;;;8.22;nan;99789.66;5995426;23;20727;-82
2022/11/30 06:35:02;;;;;;;30.50;20.03;;;;;;;8.26;nan;99793.81;6018998;23;20621;-82
2022/11/30 06:37:28;;;;;;;28.23;18.17;;;;;;;8.22;nan;99790.50;6014919;23;20213;-82
2022/11/30 06:39:53;;;;;;;24.57;15.97;;;;;;;8.19;nan;99793.28;6019610;23;20682;-81
2022/11/30 06:42:19;;;;;;;26.60;14.60;;;;;;;8.17;nan;99793.34;6016211;23;20177;-81
2022/11/30 06:44:44;;;;;;;27.40;14.70;;;;;;;8.17;nan;99803.81;6016383;23;20599;-81
2022/11/30 06:47:10;;;;;;;25.43;15.80;;;;;;;8.19;nan;99801.13;6025360;23;20251;-81
2022/11/30 06:49:35;;;;;;;32.43;15.70;;;;;;;8.19;nan;99798.53;6024175;23;20185;-81
2022/11/30 06:52:01;;;;;;;23.30;16.07;;;;;;;8.17;nan;99800.34;6027608;23;20446;-81
2022/11/30 06:54:26;;;;;;;25.57;15.77;;;;;;;8.15;nan;99799.59;6024695;23;20741;-81
2022/11/30 06:56:52;;;;;;;29.87;16.47;;;;;;;8.12;nan;99797.13;6023441;23;20279;-82
2022/11/30 06:59:17;;;;;;;22.53;15.83;;;;;;;8.11;nan;99798.91;6024394;23;20173;-81
2022/11/30 07:01:42;;;;;;;30.03;16.93;;;;;;;8.09;nan;99795.50;6024576;23;20178;-81
2022/11/30 07:04:08;;;;;;;39.30;21.10;;;;;;;8.09;nan;99800.75;6024023;23;20401;-81
2022/11/30 07:06:33;;;;;;;36.90;18.50;;;;;;;8.10;nan;99798.97;6024701;23;20177;-81
2022/11/30 07:08:59;;;;;;;28.40;16.30;;;;;;;8.09;nan;99798.13;6022377;23;20688;-81
2022/11/30 07:11:24;;;;;;;42.63;18.27;;;;;;;8.10;nan;99797.22;6024026;23;20189;-81
2022/11/30 07:13:50;;;;;;;37.20;18.83;;;;;;;8.13;nan;99807.53;6022847;23;20530;-81
2022/11/30 07:16:15;;;;;;;31.47;19.13;;;;;;;8.14;nan;99803.97;6023167;23;20186;-81
2022/11/30 07:18:40;;;;;;;31.47;17.63;;;;;;;8.16;nan;99815.22;6024703;23;20903;-81
2022/11/30 07:21:06;;;;;;;38.00;19.03;;;;;;;8.18;nan;99809.88;6022785;23;20229;-81
2022/11/30 07:26:16;;;;;;;36.40;16.85;;;;;;;8.25;nan;99813.06;6025074;23;20460;-82
2022/11/30 07:28:45;;;;;;;23.93;17.50;;;;;;;8.29;nan;99814.59;6027330;23;20181;-81
2022/11/30 07:31:14;;;;;;;33.13;18.80;;;;;;;8.29;nan;99818.06;6030876;23;20214;-82
2022/11/30 07:33:40;;;;;;;32.50;17.90;;;;;;;8.28;nan;99818.13;6026050;23;20192;-81
2022/11/30 07:36:06;;;;;;;32.88;17.88;;;;;;;8.28;nan;99811.13;6029266;23;20189;-82
2022/11/30 07:38:33;;;;;;;31.00;18.38;;;;;;;8.28;nan;99815.50;6034257;23;20331;-82
2022/11/30 07:40:58;;;;;;;28.27;15.87;;;;;;;8.26;nan;99814.75;5967976;23;20247;-81
2022/11/30 07:43:24;;;;;;;31.33;17.30;;;;;;;8.27;nan;99817.28;6017244;23;20206;-82
2022/11/30 07:45:52;;;;;;;30.33;18.10;;;;;;;8.29;nan;99817.19;6021936;23;20332;-82
2022/11/30 07:48:19;;;;;;;31.95;19.05;;;;;;;8.28;nan;99821.59;6022090;23;20232;-82
2022/11/30 07:50:45;;;;;;;40.20;17.70;;;;;;;8.27;nan;99812.06;6022459;23;20192;-82
2022/11/30 07:53:10;;;;;;;31.63;18.40;;;;;;;8.28;nan;99812.91;6021864;23;20212;-80
2022/11/30 07:55:36;;;;;;;30.37;20.70;;;;;;;8.30;nan;99813.69;6021800;23;20193;-81
2022/11/30 07:58:01;;;;;;;27.60;16.70;;;;;;;8.30;nan;99822.38;6022707;23;20637;-82
2022/11/30 08:00:26;;;;;;;32.50;20.23;;;;;;;8.30;nan;99829.38;6022128;23;20268;-81
2022/11/30 08:02:52;;;;;;;34.67;19.13;;;;;;;8.29;nan;99827.66;6020502;23;20702;-81
2022/11/30 08:05:17;;;;;;;27.80;18.93;;;;;;;8.29;nan;99820.69;5975003;23;20199;-81
2022/11/30 08:07:44;;;;;;;30.77;17.30;;;;;;;8.32;nan;99830.16;6020536;23;20716;-81
2022/11/30 08:10:10;;;;;;;27.45;18.08;;;;;;;8.32;nan;99824.91;6023104;23;20185;-82
2022/11/30 08:12:36;;;;;;;30.17;16.70;;;;;;;8.33;nan;99831.84;6009247;23;20181;-81
2022/11/30 08:15:01;;;;;;;36.80;20.03;;;;;;;8.34;nan;99829.13;6026118;23;20268;-81
2022/11/30 08:17:26;;;;;;;34.40;18.90;;;;;;;8.37;nan;99829.00;6025010;23;20506;-81
2022/11/30 08:19:52;;;;;;;34.23;20.20;;;;;;;8.38;nan;99824.59;6028362;23;20504;-81
2022/11/30 08:22:17;;;;;;;26.20;19.73;;;;;;;8.39;nan;99819.31;6020566;23;20576;-82
2022/11/30 08:24:43;;;;;;;33.47;19.93;;;;;;;8.38;nan;99828.06;6017473;23;20659;-81
2022/11/30 08:27:08;;;;;;;26.37;16.47;;;;;;;8.40;nan;99821.00;6016158;23;20205;-81
2022/11/30 08:29:33;;;;;;;33.17;17.87;;;;;;;8.44;nan;99828.69;6016250;23;20284;-81
2022/11/30 08:31:59;;;;;;;41.17;17.20;;;;;;;8.46;nan;99819.84;5991139;23;20216;-81
2022/11/30 08:34:25;;;;;;;23.23;15.90;;;;;;;8.48;nan;99827.59;6017258;23;20545;-81
2022/11/30 08:36:51;;;;;;;25.75;15.18;;;;;;;8.49;nan;99827.53;5992226;23;20207;-81
2022/11/30 08:39:16;;;;;;;27.20;14.30;;;;;;;8.51;nan;99825.69;6017542;23;20307;-81
2022/11/30 08:41:42;;;;;;;26.27;16.00;;;;;;;8.54;nan;99825.53;6016401;23;20189;-81
2022/11/30 08:44:07;;;;;;;26.27;16.17;;;;;;;8.58;nan;99826.22;5991707;23;20565;-81
2022/11/30 08:46:33;;;;;;;29.80;15.03;;;;;;;8.59;nan;99834.00;6017368;23;20425;-81
2022/11/30 08:48:59;;;;;;;32.10;15.70;;;;;;;8.60;nan;99835.69;5994806;23;20263;-81
2022/11/30 08:51:25;;;;;;;26.87;14.03;;;;;;;8.63;nan;99827.66;6023320;23;20755;-82
2022/11/30 08:53:50;;;;;;;29.87;16.17;;;;;;;8.69;nan;99838.75;6028083;23;20400;-81
2022/11/30 08:56:18;;;;;;;25.03;15.53;;;;;;;8.72;nan;99828.09;6002869;23;20195;-81
2022/11/30 08:58:44;;;;;;;30.90;16.52;;;;;;;8.77;nan;99842.66;6027325;23;20273;-82
2022/11/30 09:01:17;;;;;;;35.08;17.20;;;;;;;8.77;nan;99837.41;6027757;23;20565;-81
2022/11/30 09:03:44;;;;;;;30.20;16.08;;;;;;;8.79;nan;99840.81;6027412;23;20866;-81
2022/11/30 09:06:26;;;;;;;36.42;16.20;;;;;;;8.80;nan;99845.13;6030206;23;20184;-82
2022/11/30 09:08:54;;;;;;;29.55;15.07;;;;;;;8.81;nan;99838.13;6029083;23;20533;-81
2022/11/30 09:11:26;;;;;;;32.05;15.95;;;;;;;8.82;nan;99842.41;6022403;23;20173;-82
2022/11/30 09:13:54;;;;;;;26.90;15.10;;;;;;;8.80;nan;99833.78;6019340;23;20308;-83
2022/11/30 09:16:20;;;;;;;27.65;15.27;;;;;;;8.84;nan;99835.34;6022735;23;20205;-81
2022/11/30 09:22:33;;;;;;;24.83;13.88;;;;;;;8.91;nan;99841.94;6026252;23;20462;-82
2022/11/30 09:24:58;;;;;;;20.40;11.83;;;;;;;8.96;nan;99842.53;6020900;23;20180;-82
2022/11/30 09:27:29;;;;;;;27.60;14.20;;;;;;;8.99;nan;99855.50;6023015;23;20205;-82
2022/11/30 09:29:54;;;;;;;25.25;14.05;;;;;;;8.99;nan;99852.88;5992568;23;20949;-82
2022/11/30 09:32:20;;;;;;;26.70;14.77;;;;;;;9.03;nan;99854.38;6017796;23;20201;-82
2022/11/30 09:34:45;;;;;;;23.17;12.53;;;;;;;9.07;nan;99860.28;6013601;23;20175;-82
2022/11/30 09:37:11;;;;;;;18.90;13.93;;;;;;;9.08;nan;99857.59;6013983;23;20240;-82
2022/11/30 09:39:36;;;;;;;25.77;15.40;;;;;;;9.12;nan;99852.19;5975679;23;20353;-82
2022/11/30 09:42:23;;;;;;;26.20;14.27;;;;;;;9.17;nan;99851.00;6018870;23;20211;-81
2022/11/30 09:45:05;;;;;;;24.52;12.27;;;;;;;9.24;nan;99855.00;6015255;23;20184;-82
2022/11/30 09:47:57;;;;;;;23.05;13.27;;;;;;;9.31;nan;99852.88;5988800;23;20219;-82
2022/11/30 09:50:26;;;;;;;21.95;13.02;;;;;;;9.37;nan;99847.34;5991570;23;20194;-82
2022/11/30 09:53:01;;;;;;;23.65;11.70;;;;;;;9.46;nan;99846.81;6021101;23;21078;-81
2022/11/30 09:55:38;;;;;;;24.48;12.50;;;;;;;9.56;nan;99847.16;6018593;23;20216;-82
2022/11/30 09:58:05;;;;;;;20.80;11.98;;;;;;;9.65;nan;99845.78;6019420;23;20210;-81
2022/11/30 10:00:33;;;;;;;21.92;12.35;;;;;;;9.70;nan;99847.22;6016173;23;20174;-81
2022/11/30 10:03:03;;;;;;;21.55;10.50;;;;;;;9.72;nan;99841.88;6025520;23;20533;-81
2022/11/30 10:05:58;;;;;;;19.92;11.40;;;;;;;9.72;nan;99841.88;6027300;23;20249;-81
2022/11/30 10:08:37;;;;;;;20.90;11.10;;;;;;;9.74;nan;99846.09;6028186;23;20201;-81
2022/11/30 10:11:31;;;;;;;18.88;9.68;;;;;;;9.79;nan;99832.75;6029016;23;20181;-81
2022/11/30 10:14:06;;;;;;;18.00;9.63;;;;;;;9.84;nan;99838.56;6031573;23;20269;-80
2022/11/30 10:16:48;;;;;;;19.48;10.57;;;;;;;9.89;nan;99833.06;6031207;23;20228;-81
2022/11/30 10:19:47;;;;;;;11.23;8.07;;;;;;;9.92;nan;99833.72;6031182;23;20187;-80
2022/11/30 10:22:55;;;;;;;14.93;8.77;;;;;;;9.98;nan;99836.00;6029572;23;20273;-81
2022/11/30 10:25:32;;;;;;;14.00;8.63;;;;;;;10.05;nan;99840.91;6029437;23;20243;-80
2022/11/30 10:28:15;;;;;;;14.80;9.38;;;;;;;10.06;nan;99840.81;6031546;23;20212;-81
2022/11/30 10:30:40;;;;;;;14.90;8.07;;;;;;;10.10;nan;99837.09;6031296;23;20180;-80
2022/11/30 10:33:17;;;;;;;11.97;8.03;;;;;;;10.14;nan;99835.13;6026688;23;20200;-81
2022/11/30 10:35:55;;;;;;;17.08;9.27;;;;;;;10.16;nan;99830.63;6028586;23;20193;-81
2022/11/30 10:38:32;;;;;;;9.88;7.55;;;;;;;10.20;nan;99826.88;5979591;23;20204;-81
2022/11/30 10:41:00;;;;;;;8.88;7.97;;;;;;;10.24;nan;99814.44;6028087;23;20185;-81
2022/11/30 10:43:46;;;;;;;10.70;6.43;;;;;;;10.30;nan;99820.19;6028283;23;20169;-80
2022/11/30 10:46:25;;;;;;;6.35;4.60;;;;;;;10.37;nan;99813.66;6030845;23;20185;-82
2022/11/30 10:48:57;;;;;;;8.45;5.07;;;;;;;10.44;nan;99818.53;6026273;23;20852;-81
2022/11/30 10:51:24;;;;;;;6.13;4.00;;;;;;;10.48;nan;99818.25;6025488;23;20240;-81
2022/11/30 10:53:50;;;;;;;6.72;3.92;;;;;;;10.54;nan;99814.41;6028053;23;20201;-81
2022/11/30 10:56:15;;;;;;;5.23;3.27;;;;;;;10.56;nan;99809.94;6026924;23;20182;-76
2022/11/30 10:59:02;;;;;;;6.70;3.77;;;;;;;10.60;nan;99803.53;6025830;23;20202;-81
2022/11/30 11:01:34;;;;;;;3.63;3.33;;;;;;;10.60;nan;99796.50;6025139;23;20176;-81
2022/11/30 11:04:11;;;;;;;3.50;3.00;;;;;;;10.61;nan;99807.84;6024890;23;20405;-81
2022/11/30 11:06:44;;;;;;;3.58;2.30;;;;;;;10.56;nan;99804.69;6026215;23;20184;-81
2022/11/30 11:09:28;;;;;;;3.15;2.85;;;;;;;10.43;nan;99814.22;6024791;23;20180;-81
2022/11/30 11:11:57;;;;;;;5.05;4.15;;;;;;;10.43;nan;99798.47;6028373;23;20185;-81
2022/11/30 11:14:25;;;;;;;4.55;3.00;;;;;;;10.42;nan;99800.22;5999555;23;20187;-81
2022/11/30 11:16:50;;;;;;;4.97;2.85;;;;;;;10.45;nan;99804.44;6025924;23;20947;-81
2022/11/30 11:19:40;;;;;;;4.97;2.40;;;;;;;10.47;nan;99797.34;6024826;23;20177;-81
2022/11/30 11:22:16;;;;;;;3.05;2.38;;;;;;;10.48;nan;99797.25;6027470;23;20186;-81
2022/11/30 11:24:43;;;;;;;3.35;2.60;;;;;;;10.51;nan;99793.59;6026241;23;20185;-81
2022/11/30 11:27:29;;;;;;;3.03;2.70;;;;;;;10.41;nan;99795.91;6025884;23;20267;-81
2022/11/30 11:30:11;;;;;;;5.53;2.70;;;;;;;10.47;nan;99792.06;6027099;23;20184;-81
2022/11/30 11:32:37;;;;;;;6.13;3.15;;;;;;;10.57;nan;99795.84;6025642;23;20208;-82
2022/11/30 11:35:03;;;;;;;4.33;2.73;;;;;;;10.65;nan;99796.22;6025629;23;20172;-81
2022/11/30 11:37:32;;;;;;;3.45;3.15;;;;;;;10.72;nan;99792.28;6026826;23;20280;-82
2022/11/30 11:40:14;;;;;;;7.63;3.47;;;;;;;10.80;nan;99792.66;6024898;23;20181;-81
2022/11/30 11:42:50;;;;;;;3.58;2.83;;;;;;;10.79;nan;99785.69;6023137;23;20203;-81
2022/11/30 11:45:24;;;;;;;3.92;2.30;;;;;;;10.79;nan;99788.34;5998604;23;20190;-81
2022/11/30 11:48:07;;;;;;;4.78;2.80;;;;;;;10.83;nan;99787.22;6024882;23;20216;-81
2022/11/30 11:50:35;;;;;;;4.40;3.30;;;;;;;10.80;nan;99789.16;6025387;23;20967;-82
2022/11/30 11:53:21;;;;;;;3.83;2.70;;;;;;;10.66;nan;99776.88;6025207;23;20226;-82
2022/11/30 11:55:50;;;;;;;3.72;2.70;;;;;;;10.58;nan;99781.75;6027880;23;20193;-82
2022/11/30 11:58:24;;;;;;;4.30;2.75;;;;;;;10.51;nan;99776.06;6031554;23;20226;-82